Lulapin — WDG7412 — position and weather

sailwx.info

Track history (hours):
 
Tides and Currents Weather Stations Pressure Air Temp Water Temp Dewpoint Dewpoint Depression Visibility Wind Speed Wind Dir Waves Ship Positions

Lulapin

Owner: Brusco Tug & Barge, Inc., Longview, WA. More information available from US FCC via Universal Licensing System and Coast Guard Vessel Documentation Center.

Last reported at 2017-Sep-22 02:00 UTC. Time now 2017-Sep-22 20:44 UTC.
Position N 34°09' W 119°12'.

Length 24 m; draft 3.8 m.

Type: Tug. MMSI: 367567020.

Date/timePositionNaut miles runAvg speedWind from/ knotsBaromVisibWave heightAir tempDewpointWater temp
2017-Sep-22 02:00N 34°09' W 119°12'0 0.0
2017-Sep-22 01:30N 34°09' W 119°12'0 0.0
2017-Sep-22 01:00N 34°09' W 119°12'0 0.2
2017-Sep-22 00:30N 34°09' W 119°12'1 1.1
2017-Sep-22 00:00N 34°09' W 119°13'0 0.6
2017-Sep-21 23:29N 34°09' W 119°13'0 0.7
2017-Sep-21 23:00N 34°09' W 119°12'0 0.0
2017-Sep-21 22:30N 34°09' W 119°12'0 0.0
2017-Sep-21 21:57N 34°09' W 119°12'0 0.0
2017-Sep-21 21:29N 34°09' W 119°12'0 0.0
2017-Sep-21 20:59N 34°09' W 119°12'0 0.0
2017-Sep-21 20:29N 34°09' W 119°12'0 0.0
2017-Sep-21 19:59N 34°09' W 119°12'0 0.0
2017-Sep-21 19:29N 34°09' W 119°12'0 0.0
2017-Sep-21 18:58N 34°09' W 119°12'0 0.0
2017-Sep-21 18:30N 34°09' W 119°12'0 0.0
2017-Sep-21 17:58N 34°09' W 119°12'0 0.0
2017-Sep-21 17:30N 34°09' W 119°12'0 0.0
2017-Sep-21 17:00N 34°09' W 119°12'0 0.0
2017-Sep-21 16:30N 34°09' W 119°12'0 0.0
2017-Sep-21 16:00N 34°09' W 119°12'0 0.0
2017-Sep-21 15:30N 34°09' W 119°12'0 0.0
2017-Sep-21 15:00N 34°09' W 119°12'0 0.0
2017-Sep-21 14:30N 34°09' W 119°12'0 0.3
2017-Sep-21 14:00N 34°09' W 119°12'0 0.0
2017-Sep-21 13:30N 34°09' W 119°12'3 5.4
2017-Sep-21 12:59N 34°07' W 119°14'3 6.2
2017-Sep-21 12:30N 34°09' W 119°12'0 0.0
2017-Sep-21 11:59N 34°09' W 119°12'0 0.0
2017-Sep-21 11:30N 34°09' W 119°12'0 0.0
2017-Sep-21 11:00N 34°09' W 119°12'0 0.0
2017-Sep-21 10:30N 34°09' W 119°12'0 0.0
2017-Sep-21 10:00N 34°09' W 119°12'0 0.0
2017-Sep-21 09:30N 34°09' W 119°12'0 0.0
2017-Sep-21 08:59N 34°09' W 119°12'0 0.0
2017-Sep-21 08:29N 34°09' W 119°12'0 0.0
2017-Sep-21 07:59N 34°09' W 119°12'0 0.0
2017-Sep-21 07:30N 34°09' W 119°12'0 0.0
2017-Sep-21 06:56N 34°09' W 119°12'0 0.0
2017-Sep-21 06:30N 34°09' W 119°12'0 0.0
2017-Sep-21 05:56N 34°09' W 119°12'0 0.0
2017-Sep-21 05:29N 34°09' W 119°12'0 0.0
2017-Sep-21 04:57N 34°09' W 119°12'0 0.0
2017-Sep-21 04:30N 34°09' W 119°12'0 0.0
2017-Sep-21 03:59N 34°09' W 119°12'0 0.0
2017-Sep-21 03:28N 34°09' W 119°12'0 0.0
2017-Sep-21 02:59N 34°09' W 119°12'0 0.0
2017-Sep-21 02:30N 34°09' W 119°12'0 0.0
2017-Sep-21 02:00N 34°09' W 119°12'0 0.0
2017-Sep-21 01:30N 34°09' W 119°12'0 0.0
2017-Sep-21 01:00N 34°09' W 119°12'0 0.7
2017-Sep-21 00:30N 34°09' W 119°13'0 0.6
2017-Sep-20 23:59N 34°09' W 119°12'0 0.1
2017-Sep-20 23:30N 34°09' W 119°12'0 0.0
2017-Sep-20 22:55N 34°09' W 119°12'0 0.0
2017-Sep-20 22:30N 34°09' W 119°12'0 0.0
2017-Sep-20 22:00N 34°09' W 119°12'0 0.0
2017-Sep-20 21:30N 34°09' W 119°12'0 0.0
2017-Sep-20 21:00N 34°09' W 119°12'0 0.0
2017-Sep-20 20:30N 34°09' W 119°12'0 0.0
2017-Sep-20 19:56N 34°09' W 119°12'0 0.0
2017-Sep-20 19:23N 34°09' W 119°12'0 0.0
2017-Sep-20 19:00N 34°09' W 119°12'0 0.0
2017-Sep-20 18:27N 34°09' W 119°12'0 0.0
2017-Sep-20 18:00N 34°09' W 119°12'0 0.0
2017-Sep-20 17:30N 34°09' W 119°12'0 0.0
2017-Sep-20 17:00N 34°09' W 119°12'0 0.0
2017-Sep-20 16:29N 34°09' W 119°12'0 0.0
2017-Sep-20 16:00N 34°09' W 119°12'0 0.0
2017-Sep-20 15:29N 34°09' W 119°12'0 0.0
2017-Sep-20 14:58N 34°09' W 119°12'0 0.1
2017-Sep-20 14:00N 34°09' W 119°12'2 4.2
2017-Sep-20 13:30N 34°07' W 119°14'2 4.3
2017-Sep-20 13:00N 34°09' W 119°12'2 2.9
2017-Sep-20 12:22N 34°08' W 119°14'1 4.1
2017-Sep-20 12:00N 34°09' W 119°13'0 1.0
2017-Sep-20 11:30N 34°09' W 119°12'0 0.0
2017-Sep-20 06:25N 34°09' W 119°12'0 0.5
2017-Sep-20 06:00N 34°09' W 119°12'0 0.4
2017-Sep-20 05:29N 34°09' W 119°12'0 0.0
2017-Sep-19 23:59N 34°09' W 119°12'0 0.0
2017-Sep-19 23:30N 34°09' W 119°12'0 0.0
2017-Sep-19 22:58N 34°09' W 119°12'0 0.1
2017-Sep-19 22:30N 34°09' W 119°12'1 2.4
2017-Sep-19 22:00N 34°08' W 119°13'1 1.0
2017-Sep-19 21:30N 34°08' W 119°13'1 1.3
2017-Sep-19 20:55N 34°09' W 119°12'0 0.0
2017-Sep-19 20:30N 34°09' W 119°12'0 0.3
2017-Sep-19 20:00N 34°09' W 119°12'0 0.0
2017-Sep-19 12:15N 34°09' W 119°12'1 2.2
2017-Sep-19 12:00N 34°09' W 119°13'0 0.7
2017-Sep-19 11:30N 34°09' W 119°12'0 0.4
2017-Sep-19 10:57N 34°09' W 119°12'0 0.0
2017-Sep-19 10:30N 34°09' W 119°12'0 0.0
2017-Sep-19 10:00N 34°09' W 119°12'0 0.0
2017-Sep-19 09:29N 34°09' W 119°12'0 0.0
2017-Sep-19 09:00N 34°09' W 119°12'0 0.0
2017-Sep-19 08:30N 34°09' W 119°12'0 0.0
2017-Sep-19 08:00N 34°09' W 119°12'0 0.0
2017-Sep-19 07:30N 34°09' W 119°12'0 0.1
2017-Sep-19 06:58N 34°09' W 119°12'0 0.2
2017-Sep-19 06:30N 34°09' W 119°12'2 3.8
2017-Sep-19 06:00N 34°07' W 119°14'2 3.7
2017-Sep-19 05:30N 34°09' W 119°13'0 0.6
2017-Sep-19 04:59N 34°09' W 119°12'0 0.0
2017-Sep-18 23:50N 34°09' W 119°12'0 0.0
2017-Sep-18 23:27N 34°09' W 119°12'0 0.0
2017-Sep-18 22:59N 34°09' W 119°12'0 0.0
2017-Sep-18 22:29N 34°09' W 119°12'0 0.0
2017-Sep-18 21:59N 34°09' W 119°12'0 0.0
2017-Sep-18 21:30N 34°09' W 119°12'0 0.0
2017-Sep-18 20:56N 34°09' W 119°12'0 0.0
2017-Sep-18 20:28N 34°09' W 119°12'0 0.0
2017-Sep-18 20:00N 34°09' W 119°12'0 0.0
2017-Sep-18 19:28N 34°09' W 119°12'0 0.0
2017-Sep-18 18:57N 34°09' W 119°12'0 0.0
2017-Sep-18 18:30N 34°09' W 119°12'0 0.0
2017-Sep-18 18:00N 34°09' W 119°12'0 0.0
2017-Sep-18 17:30N 34°09' W 119°12'0 0.0
2017-Sep-18 17:00N 34°09' W 119°12'0 0.0
2017-Sep-18 16:29N 34°09' W 119°12'0 0.0
2017-Sep-18 16:00N 34°09' W 119°12'0 0.0
2017-Sep-18 15:26N 34°09' W 119°12'0 0.0
2017-Sep-18 15:00N 34°09' W 119°12'0 0.0
2017-Sep-18 14:30N 34°09' W 119°12'0 0.0
2017-Sep-18 14:00N 34°09' W 119°12'0 0.0
2017-Sep-18 13:30N 34°09' W 119°12'0 0.2
2017-Sep-18 13:00N 34°09' W 119°12'0 0.2
2017-Sep-18 12:29N 34°09' W 119°12'0 0.0
2017-Sep-18 11:58N 34°09' W 119°12'0 0.0
2017-Sep-18 11:28N 34°09' W 119°12'0 0.0
2017-Sep-18 10:59N 34°09' W 119°12'0 0.0
2017-Sep-18 10:29N 34°09' W 119°12'0 0.0
2017-Sep-18 10:00N 34°09' W 119°12'0 0.0
2017-Sep-18 09:30N 34°09' W 119°12'0 0.0
2017-Sep-18 08:59N 34°09' W 119°12'0 0.0
2017-Sep-18 08:29N 34°09' W 119°12'0 0.0
2017-Sep-18 07:58N 34°09' W 119°12'0 0.0
2017-Sep-18 07:25N 34°09' W 119°12'0 0.0
2017-Sep-18 06:57N 34°09' W 119°12'0 0.0
2017-Sep-18 06:30N 34°09' W 119°12'0 0.0
2017-Sep-18 06:00N 34°09' W 119°12'0 0.0
2017-Sep-18 05:30N 34°09' W 119°12'0 0.0
2017-Sep-18 05:00N 34°09' W 119°12'0 0.0
2017-Sep-18 04:30N 34°09' W 119°12'0 0.0
2017-Sep-18 04:00N 34°09' W 119°12'0 0.0
2017-Sep-18 03:30N 34°09' W 119°12'0 0.0
2017-Sep-18 03:00N 34°09' W 119°12'0 0.0
2017-Sep-18 02:30N 34°09' W 119°12'0 0.0
2017-Sep-18 02:00N 34°09' W 119°12'0 0.0
2017-Sep-18 01:29N 34°09' W 119°12'0 0.0
2017-Sep-18 00:58N 34°09' W 119°12'0 0.1
2017-Sep-18 00:30N 34°09' W 119°12'1 2.3
2017-Sep-18 00:00N 34°08' W 119°13'1 2.0
2017-Sep-17 23:30N 34°09' W 119°13'1 1.7
2017-Sep-17 23:00N 34°08' W 119°13'1 1.7
2017-Sep-17 22:30N 34°09' W 119°13'0 0.6
2017-Sep-17 22:00N 34°09' W 119°12'0 0.0
2017-Sep-17 21:30N 34°09' W 119°12'0 0.0
2017-Sep-17 21:00N 34°09' W 119°12'0 0.0
2017-Sep-17 20:30N 34°09' W 119°12'0 0.0
2017-Sep-17 20:00N 34°09' W 119°12'0 0.0
2017-Sep-17 19:30N 34°09' W 119°12'0 0.0
2017-Sep-17 18:59N 34°09' W 119°12'0 0.0
2017-Sep-17 18:30N 34°09' W 119°12'0 0.0
2017-Sep-17 18:01N 34°09' W 119°12'0 0.0
2017-Sep-17 17:30N 34°09' W 119°12'0 0.0
2017-Sep-17 17:00N 34°09' W 119°12'0 0.0
2017-Sep-17 16:31N 34°09' W 119°12'0 0.0
2017-Sep-17 16:00N 34°09' W 119°12'0 0.0
2017-Sep-17 15:30N 34°09' W 119°12'0 0.0
2017-Sep-17 15:00N 34°09' W 119°12'0 0.0
2017-Sep-17 14:30N 34°09' W 119°12'0 0.0
2017-Sep-17 14:00N 34°09' W 119°12'0 0.0
2017-Sep-17 13:30N 34°09' W 119°12'0 0.0
2017-Sep-17 13:00N 34°09' W 119°12'0 0.0
2017-Sep-17 12:30N 34°09' W 119°12'0 0.0
2017-Sep-17 12:00N 34°09' W 119°12'0 0.0
2017-Sep-17 11:30N 34°09' W 119°12'0 0.0
2017-Sep-17 11:00N 34°09' W 119°12'0 0.0
2017-Sep-17 10:30N 34°09' W 119°12'0 0.0
2017-Sep-17 10:00N 34°09' W 119°12'0 0.0
2017-Sep-17 09:30N 34°09' W 119°12'0 0.0
2017-Sep-17 09:00N 34°09' W 119°12'0 0.0
2017-Sep-17 08:30N 34°09' W 119°12'0 0.0
2017-Sep-17 08:00N 34°09' W 119°12'0 0.0
2017-Sep-17 07:30N 34°09' W 119°12'0 0.0
2017-Sep-17 07:00N 34°09' W 119°12'0 0.0
2017-Sep-17 06:30N 34°09' W 119°12'0 0.0
2017-Sep-17 06:00N 34°09' W 119°12'0 0.0
2017-Sep-17 05:30N 34°09' W 119°12'0 0.0
2017-Sep-17 05:00N 34°09' W 119°12'0 0.0
2017-Sep-17 04:31N 34°09' W 119°12'0 0.0
2017-Sep-17 04:00N 34°09' W 119°12'0 0.0
2017-Sep-17 03:30N 34°09' W 119°12'0 0.0
2017-Sep-17 03:00N 34°09' W 119°12'0 0.0
2017-Sep-17 02:30N 34°09' W 119°12'0 0.0
2017-Sep-17 02:00N 34°09' W 119°12'0 0.0
2017-Sep-17 01:30N 34°09' W 119°12'0 0.0
2017-Sep-17 01:00N 34°09' W 119°12'0 0.0
2017-Sep-17 00:30N 34°09' W 119°12'0 0.0
2017-Sep-16 23:59N 34°09' W 119°12'0 0.0
2017-Sep-16 23:30N 34°09' W 119°12'0 0.2
2017-Sep-16 23:00N 34°09' W 119°12'0 0.2
2017-Sep-16 22:30N 34°09' W 119°12'0 0.0
2017-Sep-16 22:00N 34°09' W 119°12'0 0.0
2017-Sep-16 21:30N 34°09' W 119°12'0 0.0
2017-Sep-16 21:00N 34°09' W 119°12'0 0.0
2017-Sep-16 20:30N 34°09' W 119°12'0 0.0
2017-Sep-16 20:00N 34°09' W 119°12'0 0.0
2017-Sep-16 19:30N 34°09' W 119°12'0 0.0
2017-Sep-16 19:00N 34°09' W 119°12'0 0.0
2017-Sep-16 18:30N 34°09' W 119°12'0 0.0
2017-Sep-16 18:00N 34°09' W 119°12'0 0.0
2017-Sep-16 17:30N 34°09' W 119°12'0 0.0
2017-Sep-16 17:00N 34°09' W 119°12'0 0.0
2017-Sep-16 16:30N 34°09' W 119°12'0 0.0
2017-Sep-16 16:00N 34°09' W 119°12'0 0.0
2017-Sep-16 15:30N 34°09' W 119°12'0 0.0
2017-Sep-16 15:00N 34°09' W 119°12'0 0.0
2017-Sep-16 14:30N 34°09' W 119°12'0 0.0
2017-Sep-16 14:00N 34°09' W 119°12'0 0.0
2017-Sep-16 13:30N 34°09' W 119°12'0 0.0
2017-Sep-16 13:00N 34°09' W 119°12'0 0.0
2017-Sep-16 12:30N 34°09' W 119°12'0 0.0
2017-Sep-16 12:00N 34°09' W 119°12'0 0.0
2017-Sep-16 11:30N 34°09' W 119°12'0 0.0
2017-Sep-16 11:00N 34°09' W 119°12'0 0.0
2017-Sep-16 10:30N 34°09' W 119°12'0 0.0
2017-Sep-16 10:00N 34°09' W 119°12'0 0.0
2017-Sep-16 09:30N 34°09' W 119°12'0 0.0
2017-Sep-16 09:00N 34°09' W 119°12'0 0.0
2017-Sep-16 08:30N 34°09' W 119°12'0 0.0
2017-Sep-16 08:00N 34°09' W 119°12'0 0.0
2017-Sep-16 07:30N 34°09' W 119°12'0 0.0
2017-Sep-16 07:00N 34°09' W 119°12'0 0.0
2017-Sep-16 06:30N 34°09' W 119°12'0 0.0
2017-Sep-16 06:00N 34°09' W 119°12'0 0.0
2017-Sep-16 05:30N 34°09' W 119°12'0 0.0
2017-Sep-16 05:00N 34°09' W 119°12'0 0.0
2017-Sep-16 04:30N 34°09' W 119°12'0 0.0
2017-Sep-16 04:00N 34°09' W 119°12'0 0.0
2017-Sep-16 03:30N 34°09' W 119°12'0 0.0
2017-Sep-16 03:00N 34°09' W 119°12'0 0.0
2017-Sep-16 02:30N 34°09' W 119°12'0 0.0
2017-Sep-16 02:00N 34°09' W 119°12'0 0.0
2017-Sep-16 01:30N 34°09' W 119°12'0 0.0
2017-Sep-16 01:00N 34°09' W 119°12'0 0.0
2017-Sep-16 00:30N 34°09' W 119°12'0 0.0
2017-Sep-16 00:00N 34°09' W 119°12'0 0.0
2017-Sep-15 23:29N 34°09' W 119°12'0 0.2
2017-Sep-15 23:00N 34°09' W 119°12'2 4.8
2017-Sep-15 22:30N 34°07' W 119°14'2 4.2
2017-Sep-15 21:57N 34°09' W 119°12'0 0.3
2017-Sep-15 21:30N 34°09' W 119°12'0 0.2
2017-Sep-15 21:00N 34°09' W 119°12'0 0.0
2017-Sep-15 20:30N 34°09' W 119°12'0 0.0
2017-Sep-15 20:00N 34°09' W 119°12'0 0.0
2017-Sep-15 19:30N 34°09' W 119°12'0 0.0
2017-Sep-15 18:59N 34°09' W 119°12'0 0.0
2017-Sep-15 18:30N 34°09' W 119°12'0 0.0
2017-Sep-15 18:00N 34°09' W 119°12'0 0.0
2017-Sep-15 17:30N 34°09' W 119°12'0 0.0
2017-Sep-15 17:00N 34°09' W 119°12'0 0.0
2017-Sep-15 16:30N 34°09' W 119°12'0 0.0
2017-Sep-15 16:00N 34°09' W 119°12'0 0.0
2017-Sep-15 15:30N 34°09' W 119°12'0 0.0
2017-Sep-15 15:00N 34°09' W 119°12'0 0.0
2017-Sep-15 14:30N 34°09' W 119°12'0 0.0
2017-Sep-15 14:00N 34°09' W 119°12'0 0.0
2017-Sep-15 13:30N 34°09' W 119°12'0 0.2
2017-Sep-15 13:00N 34°09' W 119°12'2 4.0
2017-Sep-15 12:30N 34°07' W 119°14'1 2.2
2017-Sep-15 12:00N 34°08' W 119°13'1 1.9
2017-Sep-15 11:30N 34°09' W 119°12'0 0.0
2017-Sep-15 11:00N 34°09' W 119°12'0 0.0
2017-Sep-15 10:30N 34°09' W 119°12'0 0.0
2017-Sep-15 09:59N 34°09' W 119°12'0 0.0
2017-Sep-15 09:27N 34°09' W 119°12'0 0.0
2017-Sep-15 08:59N 34°09' W 119°12'0 0.0
2017-Sep-15 08:29N 34°09' W 119°12'0 0.0
2017-Sep-15 07:56N 34°09' W 119°12'0 0.0
2017-Sep-15 07:30N 34°09' W 119°12'0 0.0
2017-Sep-15 07:00N 34°09' W 119°12'0 0.0
2017-Sep-15 06:30N 34°09' W 119°12'0 0.0
2017-Sep-15 06:00N 34°09' W 119°12'0 0.0
2017-Sep-15 05:29N 34°09' W 119°12'0 0.0
2017-Sep-15 05:00N 34°09' W 119°12'0 0.0
2017-Sep-15 04:30N 34°09' W 119°12'0 0.0
2017-Sep-15 03:59N 34°09' W 119°12'0 0.0
2017-Sep-15 03:30N 34°09' W 119°12'0 0.0
2017-Sep-15 02:59N 34°09' W 119°12'0 0.0
2017-Sep-15 02:30N 34°09' W 119°12'0 0.0
2017-Sep-15 02:00N 34°09' W 119°12'0 0.0
2017-Sep-15 01:30N 34°09' W 119°12'0 0.0
2017-Sep-15 01:00N 34°09' W 119°12'0 0.6
2017-Sep-15 00:30N 34°09' W 119°13'0 0.1
2017-Sep-14 23:43N 34°09' W 119°12'0 0.9
2017-Sep-14 23:29N 34°09' W 119°12'0 0.1
2017-Sep-14 23:00N 34°09' W 119°12'0 0.0
2017-Sep-14 22:19N 34°09' W 119°12'0 0.0
2017-Sep-14 22:00N 34°09' W 119°12'0 0.0
2017-Sep-14 21:28N 34°09' W 119°12'0 0.0
2017-Sep-14 21:00N 34°09' W 119°12'0 0.0
2017-Sep-14 20:28N 34°09' W 119°12'0 0.0
2017-Sep-14 19:59N 34°09' W 119°12'0 0.0
2017-Sep-14 19:30N 34°09' W 119°12'0 0.0
2017-Sep-14 18:54N 34°09' W 119°12'0 0.0
2017-Sep-14 18:30N 34°09' W 119°12'0 0.0
2017-Sep-14 17:44N 34°09' W 119°12'0 0.0
2017-Sep-14 17:30N 34°09' W 119°12'0 0.0
2017-Sep-14 16:52N 34°09' W 119°12'0 0.0
2017-Sep-14 16:26N 34°09' W 119°12'0 0.0
2017-Sep-14 16:00N 34°09' W 119°12'0 0.0
2017-Sep-14 15:29N 34°09' W 119°12'0 0.0
2017-Sep-14 15:00N 34°09' W 119°12'0 0.4
2017-Sep-14 14:30N 34°09' W 119°12'2 3.3
2017-Sep-14 13:48N 34°07' W 119°14'2 8.1
2017-Sep-14 13:30N 34°09' W 119°12'0 0.0
2017-Sep-14 12:54N 34°09' W 119°12'0 0.0
2017-Sep-14 12:29N 34°09' W 119°12'0 0.0
2017-Sep-14 12:00N 34°09' W 119°12'0 0.0
2017-Sep-14 11:30N 34°09' W 119°12'0 0.0
2017-Sep-14 10:49N 34°09' W 119°12'0 0.0
2017-Sep-14 10:22N 34°09' W 119°12'0 0.0
2017-Sep-14 10:00N 34°09' W 119°12'0 0.0
2017-Sep-14 09:29N 34°09' W 119°12'0 0.0
2017-Sep-14 08:59N 34°09' W 119°12'0 0.0
2017-Sep-14 08:30N 34°09' W 119°12'0 0.0
2017-Sep-14 07:52N 34°09' W 119°12'0 0.0
2017-Sep-14 07:30N 34°09' W 119°12'0 0.0
2017-Sep-14 07:00N 34°09' W 119°12'0 0.0
2017-Sep-14 06:27N 34°09' W 119°12'0 0.0
2017-Sep-14 06:00N 34°09' W 119°12'0 0.0
2017-Sep-14 05:29N 34°09' W 119°12'0 0.0
2017-Sep-14 04:42N 34°09' W 119°12'0 0.0
2017-Sep-14 04:30N 34°09' W 119°12'0 0.0
2017-Sep-14 04:00N 34°09' W 119°12'0 0.0
2017-Sep-14 03:04N 34°09' W 119°12'0 0.1
2017-Sep-14 02:59N 34°09' W 119°12'0 0.0
2017-Sep-14 02:28N 34°09' W 119°12'0 0.0
2017-Sep-14 02:00N 34°09' W 119°12'0 0.0
2017-Sep-14 01:30N 34°09' W 119°12'0 0.0
2017-Sep-14 00:56N 34°09' W 119°12'0 0.0
2017-Sep-14 00:30N 34°09' W 119°12'0 0.0
2017-Sep-14 00:00N 34°09' W 119°12'0 0.0
2017-Sep-13 23:30N 34°09' W 119°12'0 0.0
2017-Sep-13 23:00N 34°09' W 119°12'0 0.0
2017-Sep-13 22:26N 34°09' W 119°12'0 0.0
2017-Sep-13 21:56N 34°09' W 119°12'0 0.0
2017-Sep-13 21:26N 34°09' W 119°12'0 0.0
2017-Sep-13 20:57N 34°09' W 119°12'0 0.0
2017-Sep-13 20:29N 34°09' W 119°12'0 0.0
2017-Sep-13 20:00N 34°09' W 119°12'0 0.0
2017-Sep-13 19:28N 34°09' W 119°12'0 0.0
2017-Sep-13 19:00N 34°09' W 119°12'0 0.0
2017-Sep-13 18:29N 34°09' W 119°12'0 0.0
2017-Sep-13 17:58N 34°09' W 119°12'0 0.0
2017-Sep-13 17:27N 34°09' W 119°12'0 0.0
2017-Sep-13 17:00N 34°09' W 119°12'0 0.0
2017-Sep-13 16:29N 34°09' W 119°12'0 0.0
2017-Sep-13 15:59N 34°09' W 119°12'0 0.0
2017-Sep-13 15:29N 34°09' W 119°12'0 0.0
2017-Sep-13 15:00N 34°09' W 119°12'0 0.0
2017-Sep-13 14:30N 34°09' W 119°12'0 0.0
2017-Sep-13 13:59N 34°09' W 119°12'0 0.2
2017-Sep-13 13:29N 34°09' W 119°12'1 1.4
2017-Sep-13 12:59N 34°08' W 119°13'1 1.7
2017-Sep-13 12:30N 34°09' W 119°12'0 0.5
2017-Sep-13 12:00N 34°09' W 119°12'0 0.4
2017-Sep-13 11:26N 34°09' W 119°12'0 0.0
2017-Sep-13 10:59N 34°09' W 119°12'0 0.0
2017-Sep-13 02:06N 34°09' W 119°12'1 6.8
2017-Sep-13 02:00N 34°09' W 119°13'1 1.0
2017-Sep-13 01:28N 34°09' W 119°12'0 0.5
2017-Sep-13 01:00N 34°09' W 119°12'0 0.7
2017-Sep-13 00:29N 34°09' W 119°13'0 0.4
2017-Sep-13 00:00N 34°09' W 119°12'0 0.3
2017-Sep-12 23:30N 34°09' W 119°12'0 0.0
2017-Sep-12 14:07N 34°09' W 119°12'0 0.9
2017-Sep-12 14:00N 34°09' W 119°12'1 1.5
2017-Sep-12 13:30N 34°08' W 119°13'0 0.1
2017-Sep-12 13:01N 34°08' W 119°13'1 1.3
2017-Sep-12 12:30N 34°09' W 119°12'3 5.6
2017-Sep-12 11:57N 34°06' W 119°15'3 6.0
2017-Sep-12 11:30N 34°09' W 119°13'  
Track history (hours):
 
Tides and Currents Weather Stations Pressure Air Temp Water Temp Dewpoint Dewpoint Depression Visibility Wind Speed Wind Dir Waves Ship Positions

Lulapin

Owner: Brusco Tug & Barge, Inc., Longview, WA. More information available from US FCC via Universal Licensing System and Coast Guard Vessel Documentation Center.

Last reported at 2017-Sep-22 02:00 UTC. Time now 2017-Sep-22 20:44 UTC.
Position N 34°09' W 119°12'.

Length 24 m; draft 3.8 m.

Type: Tug. MMSI: 367567020.

Date/timePositionNaut miles runAvg speedWind from/ knotsBaromVisibWave heightAir tempDewpointWater temp
2017-Sep-22 02:00N 34°09' W 119°12'0 0.0
2017-Sep-22 01:30N 34°09' W 119°12'0 0.0
2017-Sep-22 01:00N 34°09' W 119°12'0 0.2
2017-Sep-22 00:30N 34°09' W 119°12'1 1.1
2017-Sep-22 00:00N 34°09' W 119°13'0 0.6
2017-Sep-21 23:29N 34°09' W 119°13'0 0.7
2017-Sep-21 23:00N 34°09' W 119°12'0 0.0
2017-Sep-21 22:30N 34°09' W 119°12'0 0.0
2017-Sep-21 21:57N 34°09' W 119°12'0 0.0
2017-Sep-21 21:29N 34°09' W 119°12'0 0.0
2017-Sep-21 20:59N 34°09' W 119°12'0 0.0
2017-Sep-21 20:29N 34°09' W 119°12'0 0.0
2017-Sep-21 19:59N 34°09' W 119°12'0 0.0
2017-Sep-21 19:29N 34°09' W 119°12'0 0.0
2017-Sep-21 18:58N 34°09' W 119°12'0 0.0
2017-Sep-21 18:30N 34°09' W 119°12'0 0.0
2017-Sep-21 17:58N 34°09' W 119°12'0 0.0
2017-Sep-21 17:30N 34°09' W 119°12'0 0.0
2017-Sep-21 17:00N 34°09' W 119°12'0 0.0
2017-Sep-21 16:30N 34°09' W 119°12'0 0.0
2017-Sep-21 16:00N 34°09' W 119°12'0 0.0
2017-Sep-21 15:30N 34°09' W 119°12'0 0.0
2017-Sep-21 15:00N 34°09' W 119°12'0 0.0
2017-Sep-21 14:30N 34°09' W 119°12'0 0.3
2017-Sep-21 14:00N 34°09' W 119°12'0 0.0
2017-Sep-21 13:30N 34°09' W 119°12'3 5.4
2017-Sep-21 12:59N 34°07' W 119°14'3 6.2
2017-Sep-21 12:30N 34°09' W 119°12'0 0.0
2017-Sep-21 11:59N 34°09' W 119°12'0 0.0
2017-Sep-21 11:30N 34°09' W 119°12'0 0.0
2017-Sep-21 11:00N 34°09' W 119°12'0 0.0
2017-Sep-21 10:30N 34°09' W 119°12'0 0.0
2017-Sep-21 10:00N 34°09' W 119°12'0 0.0
2017-Sep-21 09:30N 34°09' W 119°12'0 0.0
2017-Sep-21 08:59N 34°09' W 119°12'0 0.0
2017-Sep-21 08:29N 34°09' W 119°12'0 0.0
2017-Sep-21 07:59N 34°09' W 119°12'0 0.0
2017-Sep-21 07:30N 34°09' W 119°12'0 0.0
2017-Sep-21 06:56N 34°09' W 119°12'0 0.0
2017-Sep-21 06:30N 34°09' W 119°12'0 0.0
2017-Sep-21 05:56N 34°09' W 119°12'0 0.0
2017-Sep-21 05:29N 34°09' W 119°12'0 0.0
2017-Sep-21 04:57N 34°09' W 119°12'0 0.0
2017-Sep-21 04:30N 34°09' W 119°12'0 0.0
2017-Sep-21 03:59N 34°09' W 119°12'0 0.0
2017-Sep-21 03:28N 34°09' W 119°12'0 0.0
2017-Sep-21 02:59N 34°09' W 119°12'0 0.0
2017-Sep-21 02:30N 34°09' W 119°12'0 0.0
2017-Sep-21 02:00N 34°09' W 119°12'0 0.0
2017-Sep-21 01:30N 34°09' W 119°12'0 0.0
2017-Sep-21 01:00N 34°09' W 119°12'0 0.7
2017-Sep-21 00:30N 34°09' W 119°13'0 0.6
2017-Sep-20 23:59N 34°09' W 119°12'0 0.1
2017-Sep-20 23:30N 34°09' W 119°12'0 0.0
2017-Sep-20 22:55N 34°09' W 119°12'0 0.0
2017-Sep-20 22:30N 34°09' W 119°12'0 0.0
2017-Sep-20 22:00N 34°09' W 119°12'0 0.0
2017-Sep-20 21:30N 34°09' W 119°12'0 0.0
2017-Sep-20 21:00N 34°09' W 119°12'0 0.0
2017-Sep-20 20:30N 34°09' W 119°12'0 0.0
2017-Sep-20 19:56N 34°09' W 119°12'0 0.0
2017-Sep-20 19:23N 34°09' W 119°12'0 0.0
2017-Sep-20 19:00N 34°09' W 119°12'0 0.0
2017-Sep-20 18:27N 34°09' W 119°12'0 0.0
2017-Sep-20 18:00N 34°09' W 119°12'0 0.0
2017-Sep-20 17:30N 34°09' W 119°12'0 0.0
2017-Sep-20 17:00N 34°09' W 119°12'0 0.0
2017-Sep-20 16:29N 34°09' W 119°12'0 0.0
2017-Sep-20 16:00N 34°09' W 119°12'0 0.0
2017-Sep-20 15:29N 34°09' W 119°12'0 0.0
2017-Sep-20 14:58N 34°09' W 119°12'0 0.1
2017-Sep-20 14:00N 34°09' W 119°12'2 4.2
2017-Sep-20 13:30N 34°07' W 119°14'2 4.3
2017-Sep-20 13:00N 34°09' W 119°12'2 2.9
2017-Sep-20 12:22N 34°08' W 119°14'1 4.1
2017-Sep-20 12:00N 34°09' W 119°13'0 1.0
2017-Sep-20 11:30N 34°09' W 119°12'0 0.0
2017-Sep-20 06:25N 34°09' W 119°12'0 0.5
2017-Sep-20 06:00N 34°09' W 119°12'0 0.4
2017-Sep-20 05:29N 34°09' W 119°12'0 0.0
2017-Sep-19 23:59N 34°09' W 119°12'0 0.0
2017-Sep-19 23:30N 34°09' W 119°12'0 0.0
2017-Sep-19 22:58N 34°09' W 119°12'0 0.1
2017-Sep-19 22:30N 34°09' W 119°12'1 2.4
2017-Sep-19 22:00N 34°08' W 119°13'1 1.0
2017-Sep-19 21:30N 34°08' W 119°13'1 1.3
2017-Sep-19 20:55N 34°09' W 119°12'0 0.0
2017-Sep-19 20:30N 34°09' W 119°12'0 0.3
2017-Sep-19 20:00N 34°09' W 119°12'0 0.0
2017-Sep-19 12:15N 34°09' W 119°12'1 2.2
2017-Sep-19 12:00N 34°09' W 119°13'0 0.7
2017-Sep-19 11:30N 34°09' W 119°12'0 0.4
2017-Sep-19 10:57N 34°09' W 119°12'0 0.0
2017-Sep-19 10:30N 34°09' W 119°12'0 0.0
2017-Sep-19 10:00N 34°09' W 119°12'0 0.0
2017-Sep-19 09:29N 34°09' W 119°12'0 0.0
2017-Sep-19 09:00N 34°09' W 119°12'0 0.0
2017-Sep-19 08:30N 34°09' W 119°12'0 0.0
2017-Sep-19 08:00N 34°09' W 119°12'0 0.0
2017-Sep-19 07:30N 34°09' W 119°12'0 0.1
2017-Sep-19 06:58N 34°09' W 119°12'0 0.2
2017-Sep-19 06:30N 34°09' W 119°12'2 3.8
2017-Sep-19 06:00N 34°07' W 119°14'2 3.7
2017-Sep-19 05:30N 34°09' W 119°13'0 0.6
2017-Sep-19 04:59N 34°09' W 119°12'0 0.0
2017-Sep-18 23:50N 34°09' W 119°12'0 0.0
2017-Sep-18 23:27N 34°09' W 119°12'0 0.0
2017-Sep-18 22:59N 34°09' W 119°12'0 0.0
2017-Sep-18 22:29N 34°09' W 119°12'0 0.0
2017-Sep-18 21:59N 34°09' W 119°12'0 0.0
2017-Sep-18 21:30N 34°09' W 119°12'0 0.0
2017-Sep-18 20:56N 34°09' W 119°12'0 0.0
2017-Sep-18 20:28N 34°09' W 119°12'0 0.0
2017-Sep-18 20:00N 34°09' W 119°12'0 0.0
2017-Sep-18 19:28N 34°09' W 119°12'0 0.0
2017-Sep-18 18:57N 34°09' W 119°12'0 0.0
2017-Sep-18 18:30N 34°09' W 119°12'0 0.0
2017-Sep-18 18:00N 34°09' W 119°12'0 0.0
2017-Sep-18 17:30N 34°09' W 119°12'0 0.0
2017-Sep-18 17:00N 34°09' W 119°12'0 0.0
2017-Sep-18 16:29N 34°09' W 119°12'0 0.0
2017-Sep-18 16:00N 34°09' W 119°12'0 0.0
2017-Sep-18 15:26N 34°09' W 119°12'0 0.0
2017-Sep-18 15:00N 34°09' W 119°12'0 0.0
2017-Sep-18 14:30N 34°09' W 119°12'0 0.0
2017-Sep-18 14:00N 34°09' W 119°12'0 0.0
2017-Sep-18 13:30N 34°09' W 119°12'0 0.2
2017-Sep-18 13:00N 34°09' W 119°12'0 0.2
2017-Sep-18 12:29N 34°09' W 119°12'0 0.0
2017-Sep-18 11:58N 34°09' W 119°12'0 0.0
2017-Sep-18 11:28N 34°09' W 119°12'0 0.0
2017-Sep-18 10:59N 34°09' W 119°12'0 0.0
2017-Sep-18 10:29N 34°09' W 119°12'0 0.0
2017-Sep-18 10:00N 34°09' W 119°12'0 0.0
2017-Sep-18 09:30N 34°09' W 119°12'0 0.0
2017-Sep-18 08:59N 34°09' W 119°12'0 0.0
2017-Sep-18 08:29N 34°09' W 119°12'0 0.0
2017-Sep-18 07:58N 34°09' W 119°12'0 0.0
2017-Sep-18 07:25N 34°09' W 119°12'0 0.0
2017-Sep-18 06:57N 34°09' W 119°12'0 0.0
2017-Sep-18 06:30N 34°09' W 119°12'0 0.0
2017-Sep-18 06:00N 34°09' W 119°12'0 0.0
2017-Sep-18 05:30N 34°09' W 119°12'0 0.0
2017-Sep-18 05:00N 34°09' W 119°12'0 0.0
2017-Sep-18 04:30N 34°09' W 119°12'0 0.0
2017-Sep-18 04:00N 34°09' W 119°12'0 0.0
2017-Sep-18 03:30N 34°09' W 119°12'0 0.0
2017-Sep-18 03:00N 34°09' W 119°12'0 0.0
2017-Sep-18 02:30N 34°09' W 119°12'0 0.0
2017-Sep-18 02:00N 34°09' W 119°12'0 0.0
2017-Sep-18 01:29N 34°09' W 119°12'0 0.0
2017-Sep-18 00:58N 34°09' W 119°12'0 0.1
2017-Sep-18 00:30N 34°09' W 119°12'1 2.3
2017-Sep-18 00:00N 34°08' W 119°13'1 2.0
2017-Sep-17 23:30N 34°09' W 119°13'1 1.7
2017-Sep-17 23:00N 34°08' W 119°13'1 1.7
2017-Sep-17 22:30N 34°09' W 119°13'0 0.6
2017-Sep-17 22:00N 34°09' W 119°12'0 0.0
2017-Sep-17 21:30N 34°09' W 119°12'0 0.0
2017-Sep-17 21:00N 34°09' W 119°12'0 0.0
2017-Sep-17 20:30N 34°09' W 119°12'0 0.0
2017-Sep-17 20:00N 34°09' W 119°12'0 0.0
2017-Sep-17 19:30N 34°09' W 119°12'0 0.0
2017-Sep-17 18:59N 34°09' W 119°12'0 0.0
2017-Sep-17 18:30N 34°09' W 119°12'0 0.0
2017-Sep-17 18:01N 34°09' W 119°12'0 0.0
2017-Sep-17 17:30N 34°09' W 119°12'0 0.0
2017-Sep-17 17:00N 34°09' W 119°12'0 0.0
2017-Sep-17 16:31N 34°09' W 119°12'0 0.0
2017-Sep-17 16:00N 34°09' W 119°12'0 0.0
2017-Sep-17 15:30N 34°09' W 119°12'0 0.0
2017-Sep-17 15:00N 34°09' W 119°12'0 0.0
2017-Sep-17 14:30N 34°09' W 119°12'0 0.0
2017-Sep-17 14:00N 34°09' W 119°12'0 0.0
2017-Sep-17 13:30N 34°09' W 119°12'0 0.0
2017-Sep-17 13:00N 34°09' W 119°12'0 0.0
2017-Sep-17 12:30N 34°09' W 119°12'0 0.0
2017-Sep-17 12:00N 34°09' W 119°12'0 0.0
2017-Sep-17 11:30N 34°09' W 119°12'0 0.0
2017-Sep-17 11:00N 34°09' W 119°12'0 0.0
2017-Sep-17 10:30N 34°09' W 119°12'0 0.0
2017-Sep-17 10:00N 34°09' W 119°12'0 0.0
2017-Sep-17 09:30N 34°09' W 119°12'0 0.0
2017-Sep-17 09:00N 34°09' W 119°12'0 0.0
2017-Sep-17 08:30N 34°09' W 119°12'0 0.0
2017-Sep-17 08:00N 34°09' W 119°12'0 0.0
2017-Sep-17 07:30N 34°09' W 119°12'0 0.0
2017-Sep-17 07:00N 34°09' W 119°12'0 0.0
2017-Sep-17 06:30N 34°09' W 119°12'0 0.0
2017-Sep-17 06:00N 34°09' W 119°12'0 0.0
2017-Sep-17 05:30N 34°09' W 119°12'0 0.0
2017-Sep-17 05:00N 34°09' W 119°12'0 0.0
2017-Sep-17 04:31N 34°09' W 119°12'0 0.0
2017-Sep-17 04:00N 34°09' W 119°12'0 0.0
2017-Sep-17 03:30N 34°09' W 119°12'0 0.0
2017-Sep-17 03:00N 34°09' W 119°12'0 0.0
2017-Sep-17 02:30N 34°09' W 119°12'0 0.0
2017-Sep-17 02:00N 34°09' W 119°12'0 0.0
2017-Sep-17 01:30N 34°09' W 119°12'0 0.0
2017-Sep-17 01:00N 34°09' W 119°12'0 0.0
2017-Sep-17 00:30N 34°09' W 119°12'0 0.0
2017-Sep-16 23:59N 34°09' W 119°12'0 0.0
2017-Sep-16 23:30N 34°09' W 119°12'0 0.2
2017-Sep-16 23:00N 34°09' W 119°12'0 0.2
2017-Sep-16 22:30N 34°09' W 119°12'0 0.0
2017-Sep-16 22:00N 34°09' W 119°12'0 0.0
2017-Sep-16 21:30N 34°09' W 119°12'0 0.0
2017-Sep-16 21:00N 34°09' W 119°12'0 0.0
2017-Sep-16 20:30N 34°09' W 119°12'0 0.0
2017-Sep-16 20:00N 34°09' W 119°12'0 0.0
2017-Sep-16 19:30N 34°09' W 119°12'0 0.0
2017-Sep-16 19:00N 34°09' W 119°12'0 0.0
2017-Sep-16 18:30N 34°09' W 119°12'0 0.0
2017-Sep-16 18:00N 34°09' W 119°12'0 0.0
2017-Sep-16 17:30N 34°09' W 119°12'0 0.0
2017-Sep-16 17:00N 34°09' W 119°12'0 0.0
2017-Sep-16 16:30N 34°09' W 119°12'0 0.0
2017-Sep-16 16:00N 34°09' W 119°12'0 0.0
2017-Sep-16 15:30N 34°09' W 119°12'0 0.0
2017-Sep-16 15:00N 34°09' W 119°12'0 0.0
2017-Sep-16 14:30N 34°09' W 119°12'0 0.0
2017-Sep-16 14:00N 34°09' W 119°12'0 0.0
2017-Sep-16 13:30N 34°09' W 119°12'0 0.0
2017-Sep-16 13:00N 34°09' W 119°12'0 0.0
2017-Sep-16 12:30N 34°09' W 119°12'0 0.0
2017-Sep-16 12:00N 34°09' W 119°12'0 0.0
2017-Sep-16 11:30N 34°09' W 119°12'0 0.0
2017-Sep-16 11:00N 34°09' W 119°12'0 0.0
2017-Sep-16 10:30N 34°09' W 119°12'0 0.0
2017-Sep-16 10:00N 34°09' W 119°12'0 0.0
2017-Sep-16 09:30N 34°09' W 119°12'0 0.0
2017-Sep-16 09:00N 34°09' W 119°12'0 0.0
2017-Sep-16 08:30N 34°09' W 119°12'0 0.0
2017-Sep-16 08:00N 34°09' W 119°12'0 0.0
2017-Sep-16 07:30N 34°09' W 119°12'0 0.0
2017-Sep-16 07:00N 34°09' W 119°12'0 0.0
2017-Sep-16 06:30N 34°09' W 119°12'0 0.0
2017-Sep-16 06:00N 34°09' W 119°12'0 0.0
2017-Sep-16 05:30N 34°09' W 119°12'0 0.0
2017-Sep-16 05:00N 34°09' W 119°12'0 0.0
2017-Sep-16 04:30N 34°09' W 119°12'0 0.0
2017-Sep-16 04:00N 34°09' W 119°12'0 0.0
2017-Sep-16 03:30N 34°09' W 119°12'0 0.0
2017-Sep-16 03:00N 34°09' W 119°12'0 0.0
2017-Sep-16 02:30N 34°09' W 119°12'0 0.0
2017-Sep-16 02:00N 34°09' W 119°12'0 0.0
2017-Sep-16 01:30N 34°09' W 119°12'0 0.0
2017-Sep-16 01:00N 34°09' W 119°12'0 0.0
2017-Sep-16 00:30N 34°09' W 119°12'0 0.0
2017-Sep-16 00:00N 34°09' W 119°12'0 0.0
2017-Sep-15 23:29N 34°09' W 119°12'0 0.2
2017-Sep-15 23:00N 34°09' W 119°12'2 4.8
2017-Sep-15 22:30N 34°07' W 119°14'2 4.2
2017-Sep-15 21:57N 34°09' W 119°12'0 0.3
2017-Sep-15 21:30N 34°09' W 119°12'0 0.2
2017-Sep-15 21:00N 34°09' W 119°12'0 0.0
2017-Sep-15 20:30N 34°09' W 119°12'0 0.0
2017-Sep-15 20:00N 34°09' W 119°12'0 0.0
2017-Sep-15 19:30N 34°09' W 119°12'0 0.0
2017-Sep-15 18:59N 34°09' W 119°12'0 0.0
2017-Sep-15 18:30N 34°09' W 119°12'0 0.0
2017-Sep-15 18:00N 34°09' W 119°12'0 0.0
2017-Sep-15 17:30N 34°09' W 119°12'0 0.0
2017-Sep-15 17:00N 34°09' W 119°12'0 0.0
2017-Sep-15 16:30N 34°09' W 119°12'0 0.0
2017-Sep-15 16:00N 34°09' W 119°12'0 0.0
2017-Sep-15 15:30N 34°09' W 119°12'0 0.0
2017-Sep-15 15:00N 34°09' W 119°12'0 0.0
2017-Sep-15 14:30N 34°09' W 119°12'0 0.0
2017-Sep-15 14:00N 34°09' W 119°12'0 0.0
2017-Sep-15 13:30N 34°09' W 119°12'0 0.2
2017-Sep-15 13:00N 34°09' W 119°12'2 4.0
2017-Sep-15 12:30N 34°07' W 119°14'1 2.2
2017-Sep-15 12:00N 34°08' W 119°13'1 1.9
2017-Sep-15 11:30N 34°09' W 119°12'0 0.0
2017-Sep-15 11:00N 34°09' W 119°12'0 0.0
2017-Sep-15 10:30N 34°09' W 119°12'0 0.0
2017-Sep-15 09:59N 34°09' W 119°12'0 0.0
2017-Sep-15 09:27N 34°09' W 119°12'0 0.0
2017-Sep-15 08:59N 34°09' W 119°12'0 0.0
2017-Sep-15 08:29N 34°09' W 119°12'0 0.0
2017-Sep-15 07:56N 34°09' W 119°12'0 0.0
2017-Sep-15 07:30N 34°09' W 119°12'0 0.0
2017-Sep-15 07:00N 34°09' W 119°12'0 0.0
2017-Sep-15 06:30N 34°09' W 119°12'0 0.0
2017-Sep-15 06:00N 34°09' W 119°12'0 0.0
2017-Sep-15 05:29N 34°09' W 119°12'0 0.0
2017-Sep-15 05:00N 34°09' W 119°12'0 0.0
2017-Sep-15 04:30N 34°09' W 119°12'0 0.0
2017-Sep-15 03:59N 34°09' W 119°12'0 0.0
2017-Sep-15 03:30N 34°09' W 119°12'0 0.0
2017-Sep-15 02:59N 34°09' W 119°12'0 0.0
2017-Sep-15 02:30N 34°09' W 119°12'0 0.0
2017-Sep-15 02:00N 34°09' W 119°12'0 0.0
2017-Sep-15 01:30N 34°09' W 119°12'0 0.0
2017-Sep-15 01:00N 34°09' W 119°12'0 0.6
2017-Sep-15 00:30N 34°09' W 119°13'0 0.1
2017-Sep-14 23:43N 34°09' W 119°12'0 0.9
2017-Sep-14 23:29N 34°09' W 119°12'0 0.1
2017-Sep-14 23:00N 34°09' W 119°12'0 0.0
2017-Sep-14 22:19N 34°09' W 119°12'0 0.0
2017-Sep-14 22:00N 34°09' W 119°12'0 0.0
2017-Sep-14 21:28N 34°09' W 119°12'0 0.0
2017-Sep-14 21:00N 34°09' W 119°12'0 0.0
2017-Sep-14 20:28N 34°09' W 119°12'0 0.0
2017-Sep-14 19:59N 34°09' W 119°12'0 0.0
2017-Sep-14 19:30N 34°09' W 119°12'0 0.0
2017-Sep-14 18:54N 34°09' W 119°12'0 0.0
2017-Sep-14 18:30N 34°09' W 119°12'0 0.0
2017-Sep-14 17:44N 34°09' W 119°12'0 0.0
2017-Sep-14 17:30N 34°09' W 119°12'0 0.0
2017-Sep-14 16:52N 34°09' W 119°12'0 0.0
2017-Sep-14 16:26N 34°09' W 119°12'0 0.0
2017-Sep-14 16:00N 34°09' W 119°12'0 0.0
2017-Sep-14 15:29N 34°09' W 119°12'0 0.0
2017-Sep-14 15:00N 34°09' W 119°12'0 0.4
2017-Sep-14 14:30N 34°09' W 119°12'2 3.3
2017-Sep-14 13:48N 34°07' W 119°14'2 8.1
2017-Sep-14 13:30N 34°09' W 119°12'0 0.0
2017-Sep-14 12:54N 34°09' W 119°12'0 0.0
2017-Sep-14 12:29N 34°09' W 119°12'0 0.0
2017-Sep-14 12:00N 34°09' W 119°12'0 0.0
2017-Sep-14 11:30N 34°09' W 119°12'0 0.0
2017-Sep-14 10:49N 34°09' W 119°12'0 0.0
2017-Sep-14 10:22N 34°09' W 119°12'0 0.0
2017-Sep-14 10:00N 34°09' W 119°12'0 0.0
2017-Sep-14 09:29N 34°09' W 119°12'0 0.0
2017-Sep-14 08:59N 34°09' W 119°12'0 0.0
2017-Sep-14 08:30N 34°09' W 119°12'0 0.0
2017-Sep-14 07:52N 34°09' W 119°12'0 0.0
2017-Sep-14 07:30N 34°09' W 119°12'0 0.0
2017-Sep-14 07:00N 34°09' W 119°12'0 0.0
2017-Sep-14 06:27N 34°09' W 119°12'0 0.0
2017-Sep-14 06:00N 34°09' W 119°12'0 0.0
2017-Sep-14 05:29N 34°09' W 119°12'0 0.0
2017-Sep-14 04:42N 34°09' W 119°12'0 0.0
2017-Sep-14 04:30N 34°09' W 119°12'0 0.0
2017-Sep-14 04:00N 34°09' W 119°12'0 0.0
2017-Sep-14 03:04N 34°09' W 119°12'0 0.1
2017-Sep-14 02:59N 34°09' W 119°12'0 0.0
2017-Sep-14 02:28N 34°09' W 119°12'0 0.0
2017-Sep-14 02:00N 34°09' W 119°12'0 0.0
2017-Sep-14 01:30N 34°09' W 119°12'0 0.0
2017-Sep-14 00:56N 34°09' W 119°12'0 0.0
2017-Sep-14 00:30N 34°09' W 119°12'0 0.0
2017-Sep-14 00:00N 34°09' W 119°12'0 0.0
2017-Sep-13 23:30N 34°09' W 119°12'0 0.0
2017-Sep-13 23:00N 34°09' W 119°12'0 0.0
2017-Sep-13 22:26N 34°09' W 119°12'0 0.0
2017-Sep-13 21:56N 34°09' W 119°12'0 0.0
2017-Sep-13 21:26N 34°09' W 119°12'0 0.0
2017-Sep-13 20:57N 34°09' W 119°12'0 0.0
2017-Sep-13 20:29N 34°09' W 119°12'0 0.0
2017-Sep-13 20:00N 34°09' W 119°12'0 0.0
2017-Sep-13 19:28N 34°09' W 119°12'0 0.0
2017-Sep-13 19:00N 34°09' W 119°12'0 0.0
2017-Sep-13 18:29N 34°09' W 119°12'0 0.0
2017-Sep-13 17:58N 34°09' W 119°12'0 0.0
2017-Sep-13 17:27N 34°09' W 119°12'0 0.0
2017-Sep-13 17:00N 34°09' W 119°12'0 0.0
2017-Sep-13 16:29N 34°09' W 119°12'0 0.0
2017-Sep-13 15:59N 34°09' W 119°12'0 0.0
2017-Sep-13 15:29N 34°09' W 119°12'0 0.0
2017-Sep-13 15:00N 34°09' W 119°12'0 0.0
2017-Sep-13 14:30N 34°09' W 119°12'0 0.0
2017-Sep-13 13:59N 34°09' W 119°12'0 0.2
2017-Sep-13 13:29N 34°09' W 119°12'1 1.4
2017-Sep-13 12:59N 34°08' W 119°13'1 1.7
2017-Sep-13 12:30N 34°09' W 119°12'0 0.5
2017-Sep-13 12:00N 34°09' W 119°12'0 0.4
2017-Sep-13 11:26N 34°09' W 119°12'0 0.0
2017-Sep-13 10:59N 34°09' W 119°12'0 0.0
2017-Sep-13 02:06N 34°09' W 119°12'1 6.8
2017-Sep-13 02:00N 34°09' W 119°13'1 1.0
2017-Sep-13 01:28N 34°09' W 119°12'0 0.5
2017-Sep-13 01:00N 34°09' W 119°12'0 0.7
2017-Sep-13 00:29N 34°09' W 119°13'0 0.4
2017-Sep-13 00:00N 34°09' W 119°12'0 0.3
2017-Sep-12 23:30N 34°09' W 119°12'0 0.0
2017-Sep-12 14:07N 34°09' W 119°12'0 0.9
2017-Sep-12 14:00N 34°09' W 119°12'1 1.5
2017-Sep-12 13:30N 34°08' W 119°13'0 0.1
2017-Sep-12 13:01N 34°08' W 119°13'1 1.3
2017-Sep-12 12:30N 34°09' W 119°12'3 5.6
2017-Sep-12 11:57N 34°06' W 119°15'3 6.0
2017-Sep-12 11:30N 34°09' W 119°13'  

Dump ship's entire track history